Time;durP1;ratioP1;P1;durP2;ratioP2;P2;SDS_P1;SDS_P2;PMS_P1;PMS_P2;Temp;Humidity;BMP_temperature;BMP_pressure;BME280_temperature;BME280_humidity;BME280_pressure;Samples;Min_cycle;Max_cycle;Signal;HPM_P1;HPM_P2
2023/09/26 00:00:53;;;;;;;5.18;3.67;;;;;;;9.23;100.00;97212.91;4978946;28;20045;-72
2023/09/26 00:03:18;;;;;;;6.20;3.60;;;;;;;9.18;100.00;97222.16;4974683;28;20437;-72
2023/09/26 00:05:44;;;;;;;6.10;4.15;;;;;;;9.15;100.00;97211.91;4974990;28;20505;-71
2023/09/26 00:08:09;;;;;;;9.02;3.70;;;;;;;9.11;100.00;97219.19;4965357;28;20046;-71
2023/09/26 00:10:35;;;;;;;7.53;3.70;;;;;;;8.88;100.00;97216.16;4977424;28;20515;-71
2023/09/26 00:13:00;;;;;;;5.22;4.03;;;;;;;8.49;100.00;97212.94;4976299;28;20052;-73
2023/09/26 00:15:26;;;;;;;5.97;4.35;;;;;;;8.21;100.00;97213.59;4968193;28;20401;-71
2023/09/26 00:17:51;;;;;;;10.07;4.10;;;;;;;8.04;100.00;97211.81;4978016;28;20048;-73
2023/09/26 00:20:23;;;;;;;4.97;3.80;;;;;;;8.09;100.00;97207.31;4971815;28;20079;-72
2023/09/26 00:22:49;;;;;;;5.43;4.15;;;;;;;8.22;100.00;97217.88;4979472;28;20042;-72
2023/09/26 00:25:15;;;;;;;6.70;4.70;;;;;;;8.34;100.00;97219.84;4971777;28;20670;-72
2023/09/26 00:27:41;;;;;;;7.75;4.45;;;;;;;8.36;100.00;97216.78;4975112;28;20050;-72
2023/09/26 00:30:08;;;;;;;5.38;4.07;;;;;;;8.51;100.00;97226.28;4969929;28;20464;-72
2023/09/26 00:32:34;;;;;;;6.68;4.32;;;;;;;8.57;100.00;97225.72;4972778;28;20118;-73
2023/09/26 00:35:01;;;;;;;6.50;4.15;;;;;;;8.53;100.00;97232.19;4975038;28;20106;-73
2023/09/26 00:37:26;;;;;;;8.30;4.20;;;;;;;8.33;100.00;97225.66;4968649;28;20051;-72
2023/09/26 00:39:53;;;;;;;5.65;3.72;;;;;;;8.22;100.00;97223.34;4979654;28;20046;-73
2023/09/26 00:42:18;;;;;;;6.65;3.95;;;;;;;8.36;100.00;97225.75;4976942;28;20065;-72
2023/09/26 00:44:43;;;;;;;6.68;3.88;;;;;;;8.47;100.00;97215.22;4982408;28;20039;-73
2023/09/26 00:47:09;;;;;;;5.18;4.20;;;;;;;8.54;100.00;97226.38;4977612;28;20065;-72
2023/09/26 00:49:35;;;;;;;5.55;4.30;;;;;;;8.58;100.00;97221.03;4983356;28;20543;-73
2023/09/26 00:52:03;;;;;;;5.68;3.78;;;;;;;8.64;100.00;97214.19;4978549;28;20057;-72
2023/09/26 00:54:29;;;;;;;8.60;4.00;;;;;;;8.47;100.00;97214.44;4976911;28;20149;-70
2023/09/26 00:56:55;;;;;;;5.75;4.13;;;;;;;8.23;100.00;97221.44;4973786;28;20137;-70
2023/09/26 00:59:21;;;;;;;7.75;4.68;;;;;;;7.84;100.00;97215.41;4960709;28;20669;-70
2023/09/26 01:01:49;;;;;;;6.78;4.85;;;;;;;7.64;100.00;97217.03;4978074;28;20134;-70
2023/09/26 01:04:15;;;;;;;12.10;6.30;;;;;;;7.53;100.00;97216.66;4970328;28;20410;-71
2023/09/26 01:06:41;;;;;;;6.97;4.68;;;;;;;7.72;100.00;97212.63;4983017;28;20050;-71
2023/09/26 01:09:09;;;;;;;8.07;5.72;;;;;;;7.80;100.00;97218.00;4978048;28;20520;-71
2023/09/26 01:11:36;;;;;;;7.50;5.45;;;;;;;7.94;100.00;97222.38;4974049;28;20074;-73
2023/09/26 01:14:01;;;;;;;8.15;5.00;;;;;;;8.00;100.00;97216.38;4978449;28;20096;-73
2023/09/26 01:16:27;;;;;;;7.63;5.28;;;;;;;8.03;100.00;97214.88;4976552;28;20101;-70
2023/09/26 01:18:53;;;;;;;5.97;4.57;;;;;;;8.18;100.00;97210.72;4973801;28;20046;-72
2023/09/26 01:21:18;;;;;;;8.00;5.43;;;;;;;8.27;100.00;97219.63;4956185;28;20126;-70
2023/09/26 01:23:53;;;;;;;5.93;4.35;;;;;;;8.27;100.00;97211.44;4961784;28;20394;-70
2023/09/26 01:26:19;;;;;;;5.25;4.07;;;;;;;8.27;100.00;97222.34;4958942;28;20046;-70
2023/09/26 01:28:45;;;;;;;6.00;4.05;;;;;;;8.27;100.00;97214.16;4962247;28;20493;-70
2023/09/26 01:31:10;;;;;;;9.40;4.20;;;;;;;8.33;100.00;97212.00;4966312;28;20038;-72
2023/09/26 01:33:35;;;;;;;7.95;3.90;;;;;;;8.36;100.00;97214.84;4992521;28;20057;-74
2023/09/26 01:36:01;;;;;;;5.95;4.10;;;;;;;8.34;100.00;97214.41;4975886;28;20055;-71
2023/09/26 01:38:26;;;;;;;6.03;4.05;;;;;;;8.32;100.00;97216.66;4965870;28;20050;-72
2023/09/26 01:40:52;;;;;;;4.80;3.90;;;;;;;8.34;100.00;97217.13;4962329;28;20105;-72
2023/09/26 01:43:17;;;;;;;7.95;4.07;;;;;;;8.31;100.00;97217.78;4968312;28;20054;-72
2023/09/26 01:45:43;;;;;;;6.95;4.30;;;;;;;8.18;100.00;97219.72;4960823;28;20066;-73
2023/09/26 01:48:09;;;;;;;7.72;3.97;;;;;;;8.18;100.00;97218.91;4959037;28;20508;-72
2023/09/26 01:50:35;;;;;;;5.78;4.07;;;;;;;8.18;100.00;97221.66;4961559;28;20039;-72
2023/09/26 01:53:01;;;;;;;8.43;3.85;;;;;;;8.08;100.00;97217.41;4974326;28;20170;-74
2023/09/26 01:55:26;;;;;;;5.50;3.13;;;;;;;8.06;100.00;97216.94;4965353;28;20129;-74
2023/09/26 01:57:52;;;;;;;8.93;3.63;;;;;;;8.03;100.00;97209.44;4973350;28;20042;-71
2023/09/26 02:00:19;;;;;;;7.03;3.70;;;;;;;8.03;100.00;97214.88;4957078;28;20530;-71
2023/09/26 02:02:50;;;;;;;5.53;3.30;;;;;;;8.01;100.00;97211.69;4963968;28;20038;-72
2023/09/26 02:05:20;;;;;;;6.80;3.53;;;;;;;8.04;100.00;97219.22;4965655;28;20042;-71
2023/09/26 02:07:46;;;;;;;4.80;3.20;;;;;;;8.02;100.00;97213.31;4961491;28;20591;-71
2023/09/26 02:10:12;;;;;;;4.65;3.20;;;;;;;8.00;100.00;97216.38;4956766;28;20366;-72
2023/09/26 02:12:42;;;;;;;5.13;2.50;;;;;;;7.99;100.00;97222.16;4968442;28;20517;-72
2023/09/26 02:15:08;;;;;;;4.10;2.42;;;;;;;7.82;100.00;97225.88;4958017;28;20050;-72
2023/09/26 02:17:37;;;;;;;4.35;3.05;;;;;;;7.80;100.00;97222.69;4975571;28;20042;-72
2023/09/26 02:20:08;;;;;;;4.03;2.97;;;;;;;7.69;100.00;97221.47;4977182;28;20101;-73
2023/09/26 02:22:36;;;;;;;5.10;3.30;;;;;;;7.65;100.00;97221.34;4961466;28;20051;-72
2023/09/26 02:25:02;;;;;;;5.32;3.42;;;;;;;7.63;100.00;97218.16;4959696;28;20062;-74
2023/09/26 02:27:28;;;;;;;6.57;4.05;;;;;;;7.58;100.00;97219.19;4974100;28;20046;-72
2023/09/26 02:29:54;;;;;;;5.68;3.60;;;;;;;7.50;100.00;97217.31;4969165;28;20254;-72
2023/09/26 02:32:19;;;;;;;7.53;3.97;;;;;;;7.69;100.00;97216.03;4971171;28;20516;-71
2023/09/26 02:34:45;;;;;;;11.85;4.30;;;;;;;7.79;100.00;97212.88;4958469;28;20259;-72
2023/09/26 02:37:10;;;;;;;6.45;3.70;;;;;;;7.79;100.00;97213.69;4964445;28;20697;-73
2023/09/26 02:39:36;;;;;;;6.38;4.65;;;;;;;7.65;100.00;97213.19;4962796;28;20043;-73
2023/09/26 02:42:01;;;;;;;8.13;4.65;;;;;;;7.54;100.00;97210.06;4959967;28;20042;-73
2023/09/26 02:44:27;;;;;;;6.00;4.20;;;;;;;7.61;100.00;97207.59;4953142;28;20121;-73
2023/09/26 02:46:52;;;;;;;7.47;4.68;;;;;;;7.69;100.00;97200.47;4963478;28;20141;-73
2023/09/26 02:49:18;;;;;;;7.25;4.20;;;;;;;7.69;100.00;97199.66;4957317;28;20043;-71
2023/09/26 02:51:43;;;;;;;5.85;3.83;;;;;;;7.78;100.00;97197.69;4961556;28;20565;-70
2023/09/26 02:54:09;;;;;;;7.53;4.60;;;;;;;7.94;100.00;97200.53;4963222;28;20050;-71
2023/09/26 02:56:34;;;;;;;8.63;4.88;;;;;;;7.91;100.00;97202.03;4963201;28;20564;-70
2023/09/26 02:58:59;;;;;;;10.32;4.85;;;;;;;7.92;100.00;97197.38;4962725;28;20047;-71
2023/09/26 03:01:25;;;;;;;6.18;4.65;;;;;;;7.85;100.00;97197.94;4957319;28;20509;-71
2023/09/26 03:03:52;;;;;;;7.78;4.78;;;;;;;7.79;100.00;97196.53;4975932;28;20049;-71
2023/09/26 03:06:17;;;;;;;7.93;4.68;;;;;;;7.71;100.00;97198.22;4956379;28;20042;-70
2023/09/26 03:08:43;;;;;;;6.97;4.78;;;;;;;7.66;100.00;97195.69;4959371;28;20039;-72
2023/09/26 03:11:08;;;;;;;9.65;5.03;;;;;;;7.59;100.00;97192.72;4973036;28;20066;-73
2023/09/26 03:13:34;;;;;;;6.70;5.03;;;;;;;7.54;100.00;97198.38;4970957;28;20050;-70
2023/09/26 03:16:01;;;;;;;7.32;4.50;;;;;;;7.42;100.00;97188.22;4964000;28;20046;-71
2023/09/26 03:18:26;;;;;;;7.22;4.93;;;;;;;7.44;100.00;97194.13;4961425;28;20101;-71
2023/09/26 03:20:52;;;;;;;6.88;5.18;;;;;;;7.49;100.00;97193.13;4973097;28;20429;-72
2023/09/26 03:23:19;;;;;;;9.57;5.43;;;;;;;7.52;100.00;97187.78;4959243;28;20186;-71
2023/09/26 03:25:46;;;;;;;8.13;6.07;;;;;;;7.60;100.00;97186.94;4966061;28;20038;-72
2023/09/26 03:28:11;;;;;;;8.73;5.68;;;;;;;7.63;100.00;97186.28;4968994;28;20097;-72
2023/09/26 03:30:40;;;;;;;9.80;6.18;;;;;;;7.57;100.00;97184.06;4973498;28;20054;-72
2023/09/26 03:33:05;;;;;;;10.77;6.95;;;;;;;7.62;100.00;97178.44;4982509;28;20081;-73
2023/09/26 03:35:31;;;;;;;10.93;7.22;;;;;;;7.66;100.00;97191.03;5007324;28;20050;-72
2023/09/26 03:37:56;;;;;;;10.95;7.18;;;;;;;7.75;100.00;97190.16;4977323;28;20531;-71
2023/09/26 03:40:22;;;;;;;13.35;7.70;;;;;;;7.86;100.00;97185.88;4966247;28;20060;-72
2023/09/26 03:42:47;;;;;;;8.25;6.63;;;;;;;7.90;100.00;97184.06;4975963;28;20042;-73
2023/09/26 03:45:13;;;;;;;7.78;5.75;;;;;;;8.02;100.00;97189.53;4970712;28;20039;-70
2023/09/26 03:47:38;;;;;;;8.43;6.35;;;;;;;8.11;100.00;97185.94;4975721;28;20043;-72
2023/09/26 03:50:05;;;;;;;10.90;6.53;;;;;;;8.23;100.00;97192.22;4962286;28;20047;-75
2023/09/26 03:52:30;;;;;;;8.00;5.57;;;;;;;8.32;100.00;97191.28;4967110;28;20405;-72
2023/09/26 03:54:55;;;;;;;9.13;5.70;;;;;;;8.41;100.00;97192.00;4981069;28;20046;-71
2023/09/26 03:57:21;;;;;;;6.28;4.90;;;;;;;8.51;100.00;97198.97;4968106;28;20980;-71
2023/09/26 03:59:49;;;;;;;7.80;5.30;;;;;;;8.66;100.00;97195.56;4960706;28;20097;-71
2023/09/26 04:02:15;;;;;;;7.60;4.93;;;;;;;8.74;100.00;97200.09;4955638;28;20070;-71
2023/09/26 04:04:40;;;;;;;7.78;5.70;;;;;;;8.83;100.00;97194.53;4965513;28;20128;-72
2023/09/26 04:07:06;;;;;;;8.55;5.68;;;;;;;8.85;100.00;97194.97;4960822;28;20097;-72
2023/09/26 04:09:35;;;;;;;10.63;5.97;;;;;;;9.01;100.00;97181.41;4959797;28;20178;-72
2023/09/26 04:12:03;;;;;;;7.60;5.07;;;;;;;9.08;100.00;97181.63;4969994;28;20106;-74
2023/09/26 04:14:29;;;;;;;9.93;5.80;;;;;;;9.18;100.00;97191.28;4963833;28;20051;-73
2023/09/26 04:16:54;;;;;;;11.07;5.80;;;;;;;9.19;100.00;97185.47;4964790;28;20057;-73
2023/09/26 04:19:20;;;;;;;6.90;5.60;;;;;;;9.19;100.00;97190.94;4969197;28;20046;-73
2023/09/26 04:21:45;;;;;;;10.65;5.75;;;;;;;9.16;100.00;97186.19;4975928;28;20179;-71
2023/09/26 04:24:11;;;;;;;8.55;5.93;;;;;;;9.15;100.00;97183.78;4974910;28;20572;-73
2023/09/26 04:26:36;;;;;;;8.65;5.82;;;;;;;9.19;100.00;97187.41;4977931;28;20039;-71
2023/09/26 04:29:02;;;;;;;11.48;6.28;;;;;;;9.28;100.00;97185.34;4962861;28;20547;-73
2023/09/26 04:31:27;;;;;;;9.60;5.65;;;;;;;9.31;100.00;97189.28;4974165;28;20058;-72
2023/09/26 04:33:53;;;;;;;10.82;5.80;;;;;;;9.36;100.00;97192.59;4980930;28;20048;-73
2023/09/26 04:36:18;;;;;;;7.88;5.82;;;;;;;9.04;100.00;97196.31;4961888;28;21177;-71
2023/09/26 04:38:45;;;;;;;9.30;5.90;;;;;;;8.77;100.00;97193.97;4964659;28;20054;-72
2023/09/26 04:41:11;;;;;;;7.90;5.72;;;;;;;8.84;100.00;97192.59;4959894;28;20758;-72
2023/09/26 04:43:36;;;;;;;9.40;5.97;;;;;;;8.96;100.00;97187.91;4970582;28;20141;-72
2023/09/26 04:46:02;;;;;;;11.60;5.75;;;;;;;9.06;100.00;97194.06;4988805;28;20057;-73
2023/09/26 04:48:28;;;;;;;7.68;5.53;;;;;;;9.12;100.00;97196.19;4956601;28;20042;-72
2023/09/26 04:50:54;;;;;;;8.75;4.97;;;;;;;9.24;100.00;97195.38;4967427;28;20054;-72
2023/09/26 04:53:21;;;;;;;8.82;5.38;;;;;;;9.31;100.00;97200.22;4957435;28;20143;-71
2023/09/26 04:55:47;;;;;;;8.73;5.13;;;;;;;9.46;100.00;97204.97;4963793;28;20042;-71
2023/09/26 04:58:12;;;;;;;8.05;5.32;;;;;;;9.55;100.00;97202.09;4957855;28;20047;-71
2023/09/26 05:00:37;;;;;;;6.40;5.45;;;;;;;9.48;100.00;97201.91;4963761;28;20389;-72
2023/09/26 05:03:03;;;;;;;9.52;5.50;;;;;;;9.56;100.00;97206.41;4959290;28;20043;-74
2023/09/26 05:05:29;;;;;;;10.45;5.60;;;;;;;9.59;100.00;97210.41;4963570;28;20130;-72
2023/09/26 05:07:55;;;;;;;9.98;5.88;;;;;;;9.53;100.00;97205.19;4964877;28;20438;-72
2023/09/26 05:10:21;;;;;;;13.95;6.45;;;;;;;9.52;100.00;97206.31;4960299;28;20038;-71
2023/09/26 05:12:46;;;;;;;14.48;7.15;;;;;;;9.50;100.00;97200.41;4977083;28;20047;-71
2023/09/26 05:15:14;;;;;;;15.88;6.30;;;;;;;9.53;100.00;97205.19;4957057;28;20393;-72
2023/09/26 05:17:47;;;;;;;12.82;6.00;;;;;;;9.48;100.00;97201.91;4958463;28;20042;-70
2023/09/26 05:20:13;;;;;;;9.35;6.07;;;;;;;9.50;100.00;97202.34;4965322;28;20043;-70
2023/09/26 05:22:41;;;;;;;9.55;5.78;;;;;;;9.43;100.00;97205.66;4975651;28;20051;-71
2023/09/26 05:25:07;;;;;;;9.40;6.03;;;;;;;9.33;100.00;97204.22;4965072;28;20046;-73
2023/09/26 05:27:33;;;;;;;9.30;6.22;;;;;;;9.28;100.00;97209.94;4962774;28;20042;-72
2023/09/26 05:29:59;;;;;;;12.75;7.10;;;;;;;9.27;100.00;97204.81;4971380;28;20110;-72
2023/09/26 05:32:25;;;;;;;10.18;6.72;;;;;;;9.24;100.00;97209.03;4965799;28;20065;-72
2023/09/26 05:34:51;;;;;;;9.35;6.40;;;;;;;9.26;100.00;97212.22;5006374;23;20077;-70
2023/09/26 05:37:16;;;;;;;9.50;6.18;;;;;;;9.29;100.00;97208.81;4990280;28;20484;-69
2023/09/26 05:39:42;;;;;;;9.57;6.28;;;;;;;9.34;100.00;97214.00;4989285;28;20739;-69
2023/09/26 05:42:10;;;;;;;8.13;6.00;;;;;;;9.35;100.00;97210.13;4990764;28;20050;-68
2023/09/26 05:44:37;;;;;;;11.07;6.47;;;;;;;9.36;100.00;97216.41;4979820;28;20049;-67
2023/09/26 05:47:03;;;;;;;14.07;5.85;;;;;;;9.34;100.00;97218.69;4973285;28;20046;-68
2023/09/26 05:49:29;;;;;;;10.40;5.70;;;;;;;9.35;100.00;97218.34;4992435;28;20147;-69
2023/09/26 05:51:55;;;;;;;6.78;5.50;;;;;;;9.37;100.00;97215.25;4997911;28;20057;-68
2023/09/26 05:54:20;;;;;;;15.68;7.15;;;;;;;9.37;100.00;97216.06;4973680;28;20409;-68
2023/09/26 05:56:45;;;;;;;8.63;6.20;;;;;;;9.33;100.00;97214.38;4983221;28;20081;-69
2023/09/26 05:59:11;;;;;;;9.02;6.53;;;;;;;9.30;100.00;97217.78;4975117;28;20049;-68
2023/09/26 06:01:36;;;;;;;8.70;6.10;;;;;;;9.33;100.00;97220.63;4977652;28;20101;-69
2023/09/26 06:04:02;;;;;;;11.43;6.28;;;;;;;9.33;100.00;97222.56;4969896;28;20498;-69
2023/09/26 06:06:27;;;;;;;9.13;6.53;;;;;;;9.32;100.00;97223.69;4968781;28;20057;-69
2023/09/26 06:08:53;;;;;;;10.13;6.65;;;;;;;9.33;100.00;97223.38;4968662;28;20133;-69
2023/09/26 06:11:18;;;;;;;10.30;7.13;;;;;;;9.51;100.00;97234.81;4976204;28;20078;-69
2023/09/26 06:13:44;;;;;;;13.75;6.80;;;;;;;9.82;100.00;97225.13;4971273;28;20075;-69
2023/09/26 06:16:10;;;;;;;13.57;7.40;;;;;;;9.99;100.00;97229.50;4966597;28;20066;-69
2023/09/26 06:18:35;;;;;;;10.77;7.75;;;;;;;10.22;100.00;97224.25;4962333;28;20378;-69
2023/09/26 06:21:05;;;;;;;16.10;8.07;;;;;;;10.74;100.00;97230.66;4963963;28;20046;-69
2023/09/26 06:23:33;;;;;;;12.20;7.05;;;;;;;11.39;100.00;97237.59;4969560;28;20043;-69
2023/09/26 06:26:00;;;;;;;9.90;6.53;;;;;;;11.95;100.00;97239.19;4969962;28;20058;-69
2023/09/26 06:28:27;;;;;;;11.07;6.18;;;;;;;12.58;100.00;97226.97;4968731;28;20084;-68
2023/09/26 06:30:53;;;;;;;12.43;6.05;;;;;;;13.12;100.00;97233.31;4967521;28;20054;-69
2023/09/26 06:33:18;;;;;;;9.73;6.20;;;;;;;13.46;100.00;97233.44;4968233;28;20133;-69
2023/09/26 06:35:43;;;;;;;10.20;5.60;;;;;;;13.37;100.00;97245.50;4973890;28;20065;-69
2023/09/26 06:38:09;;;;;;;13.90;5.85;;;;;;;13.00;100.00;97242.59;4976622;28;20182;-69
2023/09/26 06:40:34;;;;;;;10.55;6.45;;;;;;;12.57;100.00;97237.19;4972257;28;20118;-69
2023/09/26 06:43:03;;;;;;;12.23;7.10;;;;;;;12.20;100.00;97237.69;4968721;28;20043;-69
2023/09/26 06:45:29;;;;;;;13.05;7.32;;;;;;;12.34;100.00;97236.38;4978932;28;20043;-69
2023/09/26 06:47:55;;;;;;;12.05;6.47;;;;;;;12.31;100.00;97240.63;4973502;28;20049;-69
2023/09/26 06:50:21;;;;;;;10.23;6.32;;;;;;;12.28;100.00;97235.06;4970705;28;20133;-68
2023/09/26 06:52:47;;;;;;;17.45;7.03;;;;;;;12.28;100.00;97237.81;4988676;28;20046;-68
2023/09/26 06:55:13;;;;;;;12.40;6.85;;;;;;;12.24;100.00;97243.25;4976488;28;20129;-68
2023/09/26 06:57:38;;;;;;;13.48;7.22;;;;;;;12.26;100.00;97243.69;5001138;28;20157;-68
2023/09/26 07:00:16;;;;;;;16.20;8.18;;;;;;;12.23;100.00;97239.72;4993140;28;20110;-68
2023/09/26 07:02:46;;;;;;;11.88;8.18;;;;;;;12.40;100.00;97243.94;4997350;28;20090;-68
2023/09/26 07:05:12;;;;;;;;;;;;;;;11.96;100.00;97244.31;4988349;28;20042;-68
2023/09/26 07:07:38;;;;;;;14.05;9.30;;;;;;;12.14;100.00;97238.38;4984214;28;19924;-69
2023/09/26 07:10:05;;;;;;;12.95;9.95;;;;;;;11.96;100.00;97235.28;4983374;28;20046;-67
2023/09/26 07:12:30;;;;;;;14.65;10.02;;;;;;;12.12;100.00;97233.25;4965194;28;20074;-70
2023/09/26 07:14:56;;;;;;;19.33;10.02;;;;;;;12.32;100.00;97244.97;4978927;28;20455;-69
2023/09/26 07:17:22;;;;;;;14.77;10.05;;;;;;;12.46;100.00;97238.97;4984405;28;20058;-69
2023/09/26 07:19:50;;;;;;;15.43;11.00;;;;;;;12.60;100.00;97238.38;4983349;28;20049;-69
2023/09/26 07:22:16;;;;;;;24.05;11.40;;;;;;;12.62;100.00;97238.81;4987918;28;20050;-70
2023/09/26 07:24:41;;;;;;;20.38;13.35;;;;;;;12.34;100.00;97242.66;4994548;28;20072;-68
2023/09/26 07:27:07;;;;;;;17.17;12.90;;;;;;;12.55;100.00;97239.50;4984595;28;20046;-68
2023/09/26 07:29:33;;;;;;;17.00;12.40;;;;;;;12.72;100.00;97235.47;4995603;28;20057;-69
2023/09/26 07:31:58;;;;;;;20.08;14.10;;;;;;;12.97;100.00;97229.56;4975501;28;20046;-69
2023/09/26 07:34:24;;;;;;;17.95;13.43;;;;;;;13.27;100.00;97232.38;4979519;28;20057;-69
2023/09/26 07:36:49;;;;;;;20.08;13.82;;;;;;;12.94;100.00;97231.09;4985504;28;20514;-69
2023/09/26 07:39:16;;;;;;;22.50;15.52;;;;;;;12.94;100.00;97222.84;4970499;28;20077;-69
2023/09/26 07:41:41;;;;;;;20.35;14.68;;;;;;;13.26;100.00;97235.50;4980249;28;20046;-69
2023/09/26 07:44:07;;;;;;;17.55;13.68;;;;;;;13.72;100.00;97230.66;4978621;28;20041;-69
2023/09/26 07:46:32;;;;;;;21.20;14.30;;;;;;;14.27;100.00;97238.34;4976436;28;20070;-69
2023/09/26 07:48:58;;;;;;;23.83;16.27;;;;;;;14.62;100.00;97239.09;4984751;28;20437;-69
2023/09/26 07:51:23;;;;;;;21.10;15.60;;;;;;;14.89;100.00;97243.28;4971510;28;20518;-69
2023/09/26 07:53:48;;;;;;;19.08;14.45;;;;;;;15.26;100.00;97236.81;4990619;28;20046;-69
2023/09/26 07:56:14;;;;;;;18.30;14.40;;;;;;;15.45;100.00;97241.28;4976337;28;20081;-68
2023/09/26 07:58:39;;;;;;;20.30;14.73;;;;;;;15.22;100.00;97244.31;4972130;28;20047;-69
2023/09/26 08:01:09;;;;;;;20.75;14.80;;;;;;;15.05;100.00;97247.72;4975374;28;20045;-69
2023/09/26 08:03:37;;;;;;;19.60;15.63;;;;;;;14.97;100.00;97246.88;4969106;28;20038;-69
2023/09/26 08:06:05;;;;;;;20.58;16.83;;;;;;;14.34;100.00;97248.66;4989445;28;20105;-69
2023/09/26 08:08:32;;;;;;;23.58;18.13;;;;;;;14.11;100.00;97243.28;4992803;28;20593;-69
2023/09/26 08:11:06;;;;;;;21.58;17.00;;;;;;;14.52;100.00;97249.59;4980994;28;20197;-69
2023/09/26 08:13:31;;;;;;;20.52;16.23;;;;;;;14.98;100.00;97244.91;4982257;28;20062;-69
2023/09/26 08:15:57;;;;;;;19.58;14.48;;;;;;;15.08;100.00;97244.19;4983828;28;20073;-69
2023/09/26 08:18:23;;;;;;;26.05;15.18;;;;;;;15.20;100.00;97246.66;4970357;28;20117;-68
2023/09/26 08:20:49;;;;;;;22.92;14.68;;;;;;;15.45;100.00;97246.81;4976292;28;20042;-69
2023/09/26 08:23:16;;;;;;;19.77;15.73;;;;;;;15.31;100.00;97252.25;4976929;28;20505;-69
2023/09/26 08:25:41;;;;;;;20.42;15.05;;;;;;;15.25;100.00;97248.25;4979992;28;20038;-69
2023/09/26 08:28:07;;;;;;;19.65;14.52;;;;;;;15.34;100.00;97250.66;4975455;28;20057;-69
2023/09/26 08:30:33;;;;;;;19.38;14.77;;;;;;;15.25;100.00;97242.72;4972071;28;20069;-68
2023/09/26 08:32:58;;;;;;;26.42;16.58;;;;;;;15.23;100.00;97248.66;4965216;28;20058;-68
2023/09/26 08:35:24;;;;;;;18.67;14.73;;;;;;;15.26;100.00;97244.31;4967839;28;20493;-69
2023/09/26 08:37:49;;;;;;;20.65;16.02;;;;;;;15.42;100.00;97252.31;4977213;28;20057;-69
2023/09/26 08:40:14;;;;;;;25.02;16.08;;;;;;;15.22;100.00;97252.56;4977095;28;20038;-69
2023/09/26 08:42:42;;;;;;;24.25;17.65;;;;;;;15.01;100.00;97250.44;4976644;28;20039;-69
2023/09/26 08:45:07;;;;;;;23.65;17.83;;;;;;;14.09;100.00;97251.91;4963207;28;20413;-69
2023/09/26 08:47:38;;;;;;;23.27;16.77;;;;;;;14.57;100.00;97247.66;4975529;28;20042;-69
2023/09/26 08:50:04;;;;;;;26.40;17.77;;;;;;;15.05;100.00;97247.72;4976143;28;20193;-69
2023/09/26 08:52:30;;;;;;;25.23;18.48;;;;;;;14.52;100.00;97243.31;4976331;28;20062;-70
2023/09/26 08:54:56;;;;;;;25.25;19.45;;;;;;;14.03;100.00;97239.66;4979654;28;20123;-69
2023/09/26 08:57:22;;;;;;;27.70;19.50;;;;;;;14.02;100.00;97242.78;4973354;28;20201;-69
2023/09/26 08:59:48;;;;;;;29.95;20.88;;;;;;;13.77;100.00;97241.34;4971269;28;20050;-69
2023/09/26 09:02:14;;;;;;;30.38;21.38;;;;;;;13.83;100.00;97252.81;4967468;28;20074;-69
2023/09/26 09:04:43;;;;;;;28.73;20.92;;;;;;;13.82;100.00;97244.91;4971417;28;20038;-69
2023/09/26 09:07:10;;;;;;;24.23;18.88;;;;;;;14.22;100.00;97241.44;4972653;28;20488;-69
2023/09/26 09:09:36;;;;;;;23.33;18.00;;;;;;;14.33;100.00;97244.28;4983920;28;20050;-69
2023/09/26 09:12:02;;;;;;;21.23;16.55;;;;;;;14.91;100.00;97242.91;4974391;28;20061;-69
2023/09/26 09:14:36;;;;;;;22.40;14.98;;;;;;;15.51;100.00;97238.19;4983652;28;20046;-69
2023/09/26 09:17:02;;;;;;;21.85;15.05;;;;;;;15.77;100.00;97248.19;4981372;28;20089;-69
2023/09/26 09:19:49;;;;;;;21.38;14.20;;;;;;;15.97;100.00;97243.94;4973658;28;20043;-70
2023/09/26 09:22:23;;;;;;;19.00;13.43;;;;;;;15.89;100.00;97249.81;4967298;28;20042;-70
2023/09/26 09:24:56;;;;;;;17.67;12.98;;;;;;;16.14;100.00;97247.16;4971016;28;20054;-70
2023/09/26 09:27:34;;;;;;;16.88;12.93;;;;;;;16.31;100.00;97254.69;4966797;28;21111;-69
2023/09/26 09:30:12;;;;;;;16.10;12.38;;;;;;;16.39;100.00;97248.00;4982832;28;20452;-69
2023/09/26 09:32:39;;;;;;;19.42;13.32;;;;;;;16.56;100.00;97251.97;4970363;28;20053;-69
2023/09/26 09:35:05;;;;;;;14.18;11.98;;;;;;;16.77;100.00;97253.19;4973906;28;20540;-69
2023/09/26 09:37:31;;;;;;;17.45;13.77;;;;;;;16.65;100.00;97236.97;4982218;28;20042;-70
2023/09/26 09:39:57;;;;;;;18.08;13.35;;;;;;;17.18;100.00;97239.78;4981713;28;20042;-69
2023/09/26 09:42:23;;;;;;;16.05;12.40;;;;;;;17.38;100.00;97240.13;4976084;28;20876;-69
2023/09/26 09:44:48;;;;;;;14.43;11.23;;;;;;;17.81;100.00;97246.75;4975567;28;20129;-70
2023/09/26 09:47:21;;;;;;;14.93;10.90;;;;;;;18.16;100.00;97245.84;4977819;28;20052;-69
2023/09/26 09:49:48;;;;;;;14.80;11.27;;;;;;;18.49;100.00;97235.34;4982560;28;20089;-69
2023/09/26 09:52:17;;;;;;;14.73;11.65;;;;;;;18.40;100.00;97238.59;4983469;28;20050;-69
2023/09/26 09:54:45;;;;;;;13.48;10.77;;;;;;;18.37;100.00;97236.63;4984431;28;20108;-69
2023/09/26 09:57:14;;;;;;;14.55;11.73;;;;;;;18.64;100.00;97244.38;4967277;28;20089;-69
2023/09/26 09:59:42;;;;;;;14.77;11.45;;;;;;;18.69;99.26;97241.97;4981688;28;20496;-69
2023/09/26 10:02:10;;;;;;;17.20;12.30;;;;;;;18.46;98.73;97236.97;4970906;28;20073;-69
2023/09/26 10:04:37;;;;;;;15.48;11.45;;;;;;;18.55;97.93;97242.06;4974881;28;20038;-69
2023/09/26 10:07:03;;;;;;;16.05;11.85;;;;;;;18.77;98.91;97231.59;4986187;28;20046;-70
2023/09/26 10:09:32;;;;;;;16.00;11.60;;;;;;;18.38;98.62;97234.63;4977346;28;20082;-69
2023/09/26 10:11:59;;;;;;;16.17;11.37;;;;;;;18.77;96.66;97236.34;4974663;28;20142;-68
2023/09/26 10:14:29;;;;;;;14.88;11.40;;;;;;;19.10;94.37;97226.59;4968791;28;20124;-70
2023/09/26 10:16:55;;;;;;;;;;;;;;;18.98;92.11;97230.66;4970798;28;20379;-69
2023/09/26 10:19:25;;;;;;;15.98;12.25;;;;;;;19.22;88.87;97231.63;4966362;28;19922;-70
2023/09/26 10:21:52;;;;;;;14.38;11.30;;;;;;;19.17;92.77;97232.06;4974777;28;20038;-69
2023/09/26 10:24:18;;;;;;;16.60;13.07;;;;;;;19.03;93.42;97221.91;4975419;28;20144;-69
2023/09/26 10:26:45;;;;;;;13.63;10.93;;;;;;;18.92;95.97;97235.06;4981933;28;20081;-69
2023/09/26 10:29:17;;;;;;;14.23;11.07;;;;;;;19.73;92.60;97228.34;4975954;28;20097;-69
2023/09/26 10:31:53;;;;;;;17.27;12.70;;;;;;;20.60;84.63;97223.25;4961775;28;20150;-69
2023/09/26 10:34:22;;;;;;;14.82;10.90;;;;;;;21.05;82.20;97231.31;4957297;28;20038;-70
2023/09/26 10:36:47;;;;;;;15.60;12.77;;;;;;;22.21;73.70;97232.72;4976774;28;20035;-70
2023/09/26 10:39:13;;;;;;;13.15;11.35;;;;;;;22.71;69.26;97238.00;4965331;28;20100;-69
2023/09/26 10:41:40;;;;;;;15.95;11.32;;;;;;;21.15;79.00;97229.53;4966143;28;20074;-69
2023/09/26 10:44:06;;;;;;;13.50;9.90;;;;;;;22.33;72.19;97237.69;4976969;28;20042;-68
2023/09/26 10:46:31;;;;;;;15.88;10.93;;;;;;;22.43;69.15;97228.28;4965634;28;20077;-70
2023/09/26 10:48:57;;;;;;;16.00;11.25;;;;;;;22.48;70.16;97229.78;4982456;28;20133;-69
2023/09/26 10:51:23;;;;;;;14.10;11.75;;;;;;;21.71;71.85;97221.38;4951930;28;20629;-69
2023/09/26 10:53:48;;;;;;;19.17;12.45;;;;;;;21.89;73.55;97231.38;4976227;28;20039;-68
2023/09/26 10:56:14;;;;;;;13.70;11.07;;;;;;;22.56;70.45;97227.59;4966486;28;20042;-68
2023/09/26 10:58:42;;;;;;;14.25;10.77;;;;;;;22.65;67.13;97230.56;4981740;28;20077;-68
2023/09/26 11:01:08;;;;;;;14.02;11.15;;;;;;;22.61;67.38;97227.09;4966207;28;20100;-68
2023/09/26 11:03:34;;;;;;;15.02;11.32;;;;;;;22.17;69.43;97226.44;4972779;28;20035;-69
2023/09/26 11:06:01;;;;;;;15.27;9.70;;;;;;;22.10;72.38;97221.81;4970732;28;20101;-68
2023/09/26 11:08:27;;;;;;;11.43;8.00;;;;;;;22.78;69.61;97216.72;4979182;28;20042;-69
2023/09/26 11:10:53;;;;;;;11.60;9.15;;;;;;;23.02;67.21;97220.91;4988402;28;20046;-69
2023/09/26 11:13:19;;;;;;;11.50;8.25;;;;;;;23.00;64.74;97214.97;4991194;28;20049;-67
2023/09/26 11:15:45;;;;;;;13.25;8.13;;;;;;;23.02;65.47;97214.53;4971532;28;20040;-68
2023/09/26 11:18:13;;;;;;;14.77;8.98;;;;;;;22.98;64.02;97216.66;4966922;28;20049;-70
2023/09/26 11:20:39;;;;;;;17.27;10.80;;;;;;;23.54;62.33;97210.81;4968564;28;20122;-69